Time;durP1;ratioP1;P1;durP2;ratioP2;P2;SDS_P1;SDS_P2;PMS_P1;PMS_P2;Temp;Humidity;BMP_temperature;BMP_pressure;BME280_temperature;BME280_humidity;BME280_pressure;Samples;Min_cycle;Max_cycle;Signal;HPM_P1;HPM_P2
2022/08/30 00:01:58;;;;;;;3.83;2.43;;;17.60;96.20;;;;;;5041305;28;20772;-82
2022/08/30 00:04:25;;;;;;;2.33;2.13;;;17.80;95.60;;;;;;5048309;28;20649;-83
2022/08/30 00:06:52;;;;;;;2.10;1.90;;;17.70;95.60;;;;;;5048140;28;20733;-82
2022/08/30 00:09:19;;;;;;;3.83;2.80;;;17.70;95.70;;;;;;5048507;28;21240;-82
2022/08/30 00:11:46;;;;;;;2.23;2.03;;;17.50;95.60;;;;;;5047984;28;20773;-82
2022/08/30 00:14:12;;;;;;;2.33;2.13;;;17.60;95.90;;;;;;5048588;28;21012;-82
2022/08/30 00:16:39;;;;;;;2.73;2.23;;;17.70;95.90;;;;;;5047703;28;20726;-82
2022/08/30 00:19:07;;;;;;;3.47;3.20;;;17.50;95.70;;;;;;5048251;28;20717;-82
2022/08/30 00:21:34;;;;;;;3.00;2.40;;;17.50;96.40;;;;;;5047277;28;20688;-82
2022/08/30 00:24:01;;;;;;;2.23;2.13;;;17.40;96.70;;;;;;5046959;28;20668;-82
2022/08/30 00:26:28;;;;;;;2.50;2.17;;;17.40;96.80;;;;;;5046627;28;20638;-82
2022/08/30 00:28:55;;;;;;;4.10;2.50;;;17.30;96.90;;;;;;5047915;28;20626;-82
2022/08/30 00:31:22;;;;;;;2.77;2.07;;;17.30;96.90;;;;;;5047240;28;20684;-83
2022/08/30 00:33:49;;;;;;;3.10;2.80;;;17.40;96.70;;;;;;5048155;28;20716;-82
2022/08/30 00:36:17;;;;;;;2.67;2.47;;;17.40;96.80;;;;;;5048258;28;20721;-83
2022/08/30 00:38:44;;;;;;;2.27;2.07;;;17.30;97.00;;;;;;5047842;28;20618;-82
2022/08/30 00:41:11;;;;;;;2.83;2.60;;;17.30;96.90;;;;;;5048040;28;20692;-82
2022/08/30 00:43:38;;;;;;;2.70;2.50;;;17.30;97.00;;;;;;5028625;28;20728;-82
2022/08/30 00:46:07;;;;;;;2.93;2.17;;;17.20;96.70;;;;;;5047578;28;20662;-83
2022/08/30 00:48:37;;;;;;;2.73;2.40;;;15.90;95.80;;;;;;5047661;28;20634;-82
2022/08/30 00:51:08;;;;;;;3.10;2.90;;;17.20;96.40;;;;;;5047768;28;20662;-82
2022/08/30 00:53:42;;;;;;;4.13;3.60;;;17.30;96.30;;;;;;5047728;28;20759;-82
2022/08/30 00:56:10;;;;;;;7.73;3.20;;;17.40;95.80;;;;;;5047624;28;21215;-82
2022/08/30 00:58:40;;;;;;;4.10;3.10;;;17.30;95.50;;;;;;5047654;28;20614;-82
2022/08/30 01:01:08;;;;;;;3.23;2.37;;;17.30;96.60;;;;;;5046876;28;21200;-82
2022/08/30 01:03:36;;;;;;;6.83;3.50;;;17.00;97.10;;;;;;5048090;28;20646;-82
2022/08/30 01:06:04;;;;;;;6.53;3.97;;;17.10;97.30;;;;;;5047548;28;20654;-82
2022/08/30 01:08:32;;;;;;;3.53;3.07;;;17.00;97.50;;;;;;5047597;28;20619;-82
2022/08/30 01:11:02;;;;;;;2.73;2.53;;;16.90;98.30;;;;;;5045685;28;20665;-82
2022/08/30 01:13:29;;;;;;;3.07;2.77;;;16.90;98.40;;;;;;5047006;28;20658;-82
2022/08/30 01:15:59;;;;;;;3.20;2.73;;;16.90;98.90;;;;;;5047501;28;20630;-84
2022/08/30 01:18:28;;;;;;;2.57;2.37;;;16.90;99.20;;;;;;5044254;28;20622;-82
2022/08/30 01:21:02;;;;;;;2.67;2.47;;;16.90;99.50;;;;;;5047021;28;20734;-82
2022/08/30 01:23:33;;;;;;;4.00;2.00;;;16.90;99.40;;;;;;5045587;28;20618;-82
2022/08/30 01:26:04;;;;;;;2.27;2.07;;;16.90;99.20;;;;;;5045679;28;20626;-82
2022/08/30 01:28:33;;;;;;;2.93;2.67;;;16.80;99.40;;;;;;5047450;28;20720;-82
2022/08/30 01:31:00;;;;;;;3.20;2.90;;;16.90;99.50;;;;;;5047231;28;20654;-82
2022/08/30 01:33:27;;;;;;;4.03;3.03;;;16.90;99.40;;;;;;5046759;28;20634;-82
2022/08/30 01:35:58;;;;;;;3.70;2.97;;;16.80;99.70;;;;;;5046409;28;20645;-82
2022/08/30 01:38:30;;;;;;;3.67;2.63;;;16.80;99.90;;;;;;5050471;28;21349;-82
2022/08/30 01:41:00;;;;;;;3.10;2.43;;;16.80;99.90;;;;;;5051640;28;21184;-82
2022/08/30 01:43:27;;;;;;;3.10;1.87;;;16.70;99.90;;;;;;5051670;28;21209;-82
2022/08/30 01:45:55;;;;;;;5.03;3.10;;;16.70;99.90;;;;;;5051346;28;20665;-82
2022/08/30 01:48:23;;;;;;;4.03;3.63;;;16.70;99.90;;;;;;5049936;28;20669;-84
2022/08/30 01:50:51;;;;;;;4.27;3.37;;;16.60;99.90;;;;;;5050800;28;21555;-84
2022/08/30 01:53:19;;;;;;;3.63;2.80;;;16.60;99.90;;;;;;5051479;28;20737;-84
2022/08/30 01:55:47;;;;;;;2.43;2.33;;;16.60;99.90;;;;;;5050944;28;20638;-84
2022/08/30 01:58:16;;;;;;;4.57;2.90;;;16.70;99.90;;;;;;5051196;28;21251;-85
2022/08/30 02:00:43;;;;;;;4.23;2.50;;;16.60;99.90;;;;;;5050533;28;21205;-83
2022/08/30 02:03:10;;;;;;;3.60;3.03;;;16.70;99.70;;;;;;5050683;28;21013;-82
2022/08/30 02:05:37;;;;;;;3.70;3.40;;;16.70;99.40;;;;;;5050546;28;20646;-85
2022/08/30 02:08:04;;;;;;;3.17;2.93;;;16.60;99.60;;;;;;5050959;28;20684;-84
2022/08/30 02:10:31;;;;;;;3.87;2.90;;;16.60;99.90;;;;;;5050610;28;21229;-84
2022/08/30 02:12:59;;;;;;;3.90;2.93;;;16.50;99.90;;;;;;5050544;28;20668;-84
2022/08/30 02:15:28;;;;;;;4.53;3.17;;;16.40;99.90;;;;;;5050753;28;20661;-84
2022/08/30 02:17:55;;;;;;;4.47;3.23;;;16.40;99.90;;;;;;5050541;28;20626;-84
2022/08/30 02:20:22;;;;;;;4.17;3.20;;;16.40;99.90;;;;;;5050511;28;21226;-84
2022/08/30 02:22:50;;;;;;;3.97;3.50;;;16.50;99.90;;;;;;5049800;28;20630;-84
2022/08/30 02:25:18;;;;;;;4.00;3.03;;;16.50;99.90;;;;;;5048948;28;21504;-84
2022/08/30 02:27:46;;;;;;;3.33;3.03;;;16.50;99.90;;;;;;5050041;28;20633;-83
2022/08/30 02:30:14;;;;;;;3.20;2.90;;;16.50;99.90;;;;;;5050772;28;20714;-84
2022/08/30 02:32:43;;;;;;;2.70;2.50;;;16.40;99.90;;;;;;5050383;28;21601;-84
2022/08/30 02:35:11;;;;;;;3.60;3.30;;;;;;;;;;5049953;28;20708;-84
2022/08/30 02:37:39;;;;;;;3.70;3.13;;;16.30;99.90;;;;;;5050440;28;20630;-84
2022/08/30 02:40:08;;;;;;;3.03;2.73;;;16.20;99.90;;;;;;5050558;28;21710;-84
2022/08/30 02:42:36;;;;;;;3.20;2.47;;;16.20;99.90;;;;;;5049885;28;20663;-85
2022/08/30 02:45:04;;;;;;;4.47;2.77;;;16.20;99.90;;;;;;5050248;28;20717;-82
2022/08/30 02:47:31;;;;;;;3.47;3.17;;;16.10;99.90;;;;;;5049971;28;20633;-84
2022/08/30 02:50:02;;;;;;;2.73;2.50;;;16.20;99.90;;;;;;5050339;28;20633;-84
2022/08/30 02:52:30;;;;;;;2.70;2.37;;;16.10;99.90;;;;;;5049821;28;21295;-84
2022/08/30 02:54:58;;;;;;;3.87;2.67;;;16.10;99.90;;;;;;5049623;28;20650;-83
2022/08/30 02:57:25;;;;;;;3.43;2.87;;;16.30;99.90;;;;;;5049778;28;21283;-84
2022/08/30 02:59:53;;;;;;;4.40;3.00;;;16.10;99.90;;;;;;5050162;28;20642;-84
2022/08/30 03:02:21;;;;;;;2.90;2.60;;;16.10;99.90;;;;;;5049499;28;21216;-84
2022/08/30 03:04:48;;;;;;;2.60;2.40;;;16.30;99.90;;;;;;5049876;28;20622;-84
2022/08/30 03:07:17;;;;;;;5.90;3.77;;;16.30;99.90;;;;;;5050125;28;20893;-84
2022/08/30 03:09:44;;;;;;;3.47;2.60;;;15.70;99.90;;;;;;5049351;28;20618;-84
2022/08/30 03:12:12;;;;;;;2.47;2.27;;;16.20;99.90;;;;;;5049410;28;20759;-82
2022/08/30 03:14:39;;;;;;;3.80;3.27;;;16.10;99.90;;;;;;5049844;28;20692;-82
2022/08/30 03:17:07;;;;;;;3.63;3.30;;;16.00;99.90;;;;;;5049507;28;21203;-82
2022/08/30 03:19:36;;;;;;;3.97;3.00;;;16.00;99.90;;;;;;5049809;28;20631;-82
2022/08/30 03:22:04;;;;;;;4.40;3.50;;;16.30;99.90;;;;;;5047265;28;20652;-83
2022/08/30 03:24:32;;;;;;;2.40;2.20;;;16.10;99.90;;;;;;5047760;28;20614;-82
2022/08/30 03:26:59;;;;;;;3.87;2.60;;;16.10;99.90;;;;;;5047697;28;20646;-82
2022/08/30 03:29:26;;;;;;;3.30;2.97;;;16.00;99.90;;;;;;5049753;28;20634;-82
2022/08/30 03:31:53;;;;;;;3.30;3.10;;;16.00;99.90;;;;;;5048832;28;20711;-82
2022/08/30 03:34:20;;;;;;;3.23;2.93;;;15.90;99.90;;;;;;5049397;28;20614;-82
2022/08/30 03:36:48;;;;;;;4.13;3.20;;;15.90;99.90;;;;;;5048189;28;20629;-82
2022/08/30 03:39:15;;;;;;;3.30;3.00;;;15.80;99.90;;;;;;5049700;28;20614;-82
2022/08/30 03:41:44;;;;;;;3.33;2.73;;;15.80;99.90;;;;;;5048979;28;20626;-82
2022/08/30 03:44:11;;;;;;;2.43;2.27;;;15.80;99.90;;;;;;5049155;28;20622;-82
2022/08/30 03:46:39;;;;;;;4.10;3.10;;;15.90;99.90;;;;;;5048919;28;20681;-82
2022/08/30 03:49:05;;;;;;;3.93;2.70;;;15.90;99.90;;;;;;5048727;28;20749;-82
2022/08/30 03:51:32;;;;;;;2.73;2.53;;;15.80;99.90;;;;;;5048006;28;21317;-82
2022/08/30 03:54:00;;;;;;;3.10;2.60;;;15.90;99.90;;;;;;5048934;28;20619;-83
2022/08/30 03:56:27;;;;;;;2.80;2.37;;;15.90;99.90;;;;;;5048538;28;20673;-82
2022/08/30 03:58:55;;;;;;;3.97;2.70;;;15.90;99.90;;;;;;5048571;28;20661;-83
2022/08/30 04:01:23;;;;;;;3.63;3.10;;;15.80;99.90;;;;;;5048211;28;20614;-82
2022/08/30 04:03:49;;;;;;;5.37;3.43;;;15.80;99.90;;;;;;5048266;28;20626;-83
2022/08/30 04:06:16;;;;;;;3.20;2.90;;;15.70;99.90;;;;;;5048426;28;20626;-82
2022/08/30 04:08:44;;;;;;;3.00;2.70;;;15.70;99.90;;;;;;5048870;28;20684;-82
2022/08/30 04:11:13;;;;;;;4.77;3.90;;;15.80;99.90;;;;;;5048349;28;20702;-82
2022/08/30 04:13:40;;;;;;;4.47;2.97;;;15.70;99.90;;;;;;5048716;28;20726;-82
2022/08/30 04:16:09;;;;;;;3.10;2.80;;;15.70;99.90;;;;;;5048683;28;20741;-82
2022/08/30 04:18:36;;;;;;;4.03;3.70;;;15.70;99.90;;;;;;5047998;28;21385;-82
2022/08/30 04:21:04;;;;;;;2.77;2.53;;;15.70;99.90;;;;;;5048014;28;21265;-82
2022/08/30 04:23:31;;;;;;;2.90;2.50;;;15.60;99.90;;;;;;5047872;28;21346;-82
2022/08/30 04:25:58;;;;;;;3.20;2.80;;;15.50;99.90;;;;;;5046373;28;20747;-82
2022/08/30 04:28:25;;;;;;;3.17;2.93;;;15.40;99.90;;;;;;5047587;28;21270;-82
2022/08/30 04:30:52;;;;;;;4.23;3.10;;;15.40;99.90;;;;;;5047399;28;20696;-82
2022/08/30 04:33:21;;;;;;;3.80;3.50;;;15.40;99.90;;;;;;5048278;28;20697;-82
2022/08/30 04:35:49;;;;;;;3.37;3.07;;;15.50;99.90;;;;;;5048029;28;20729;-82
2022/08/30 04:38:17;;;;;;;4.60;4.20;;;15.50;99.90;;;;;;5048010;28;20646;-82
2022/08/30 04:40:47;;;;;;;3.47;3.00;;;15.50;99.90;;;;;;5047884;28;20651;-82
2022/08/30 04:43:14;;;;;;;4.23;2.80;;;15.50;99.90;;;;;;5044762;28;21381;-82
2022/08/30 04:45:42;;;;;;;5.00;4.00;;;15.50;99.90;;;;;;5047478;28;20633;-83
2022/08/30 04:48:09;;;;;;;4.90;3.50;;;15.50;99.90;;;;;;5049215;28;20726;-85
2022/08/30 04:50:37;;;;;;;4.13;2.60;;;15.50;99.90;;;;;;5048198;28;21208;-85
2022/08/30 04:53:04;;;;;;;4.13;3.83;;;15.60;99.90;;;;;;5048417;28;20662;-85
2022/08/30 04:55:31;;;;;;;3.80;2.70;;;15.50;99.90;;;;;;5048756;28;20649;-84
2022/08/30 04:57:59;;;;;;;2.50;2.30;;;15.50;99.90;;;;;;5048776;28;20632;-85
2022/08/30 05:00:26;;;;;;;3.37;2.70;;;15.60;99.90;;;;;;5048895;28;20699;-85
2022/08/30 05:02:53;;;;;;;3.30;2.70;;;15.60;99.90;;;;;;5048598;28;20634;-85
2022/08/30 05:08:07;;;;;;;3.37;2.50;;;15.60;99.90;;;;;;5046988;28;20662;-85
2022/08/30 05:10:34;;;;;;;4.20;3.30;;;15.60;99.90;;;;;;5049368;28;20629;-84
2022/08/30 05:13:01;;;;;;;5.13;4.00;;;15.60;99.90;;;;;;5045228;28;20847;-84
2022/08/30 05:15:28;;;;;;;4.20;3.80;;;15.70;99.90;;;;;;5048516;28;20696;-85
2022/08/30 05:17:54;;;;;;;3.70;3.20;;;15.80;99.90;;;;;;5046147;28;20664;-84
2022/08/30 05:20:22;;;;;;;4.00;2.80;;;15.80;99.90;;;;;;5048087;28;20631;-85
2022/08/30 05:22:50;;;;;;;3.30;3.00;;;16.00;99.90;;;;;;5050148;28;20657;-85
2022/08/30 05:25:20;;;;;;;4.73;3.17;;;15.80;99.90;;;;;;5048420;28;20761;-84
2022/08/30 05:27:47;;;;;;;4.87;3.93;;;16.10;99.90;;;;;;5050124;28;20630;-85
2022/08/30 05:30:16;;;;;;;3.83;3.47;;;16.20;99.90;;;;;;5050238;28;20619;-85
2022/08/30 05:32:43;;;;;;;4.27;4.07;;;;;;;;;;5050634;28;20728;-85
2022/08/30 05:35:13;;;;;;;3.83;3.37;;;16.50;99.90;;;;;;5050721;28;20626;-85
2022/08/30 05:37:40;;;;;;;3.43;3.13;;;16.60;99.90;;;;;;5051520;28;20626;-85
2022/08/30 05:40:08;;;;;;;3.63;3.30;;;16.70;99.90;;;;;;5052227;28;20672;-84
2022/08/30 05:42:40;;;;;;;5.90;3.93;;;16.90;99.90;;;;;;5050924;28;20694;-85
2022/08/30 05:45:08;;;;;;;5.17;3.90;;;16.90;99.90;;;;;;5052183;28;20741;-85
2022/08/30 05:47:35;;;;;;;5.90;3.37;;;17.00;99.90;;;;;;5050817;28;20653;-86
2022/08/30 05:50:02;;;;;;;5.17;3.63;;;17.20;99.90;;;;;;5051102;28;20622;-87
2022/08/30 05:52:29;;;;;;;4.13;3.63;;;17.10;99.90;;;;;;5051021;28;20724;-85
2022/08/30 05:54:58;;;;;;;5.10;3.90;;;17.20;99.90;;;;;;5043839;28;20688;-84
2022/08/30 05:57:25;;;;;;;4.20;3.70;;;17.20;99.90;;;;;;5047267;28;20689;-85
2022/08/30 05:59:54;;;;;;;4.37;3.20;;;17.30;99.90;;;;;;5050006;28;20676;-86
2022/08/30 06:02:21;;;;;;;3.90;3.50;;;17.30;99.90;;;;;;5049529;28;20619;-86
2022/08/30 06:04:48;;;;;;;5.53;3.30;;;17.60;99.90;;;;;;5049565;28;20733;-85
2022/08/30 06:07:14;;;;;;;5.63;3.70;;;17.50;99.90;;;;;;5048826;28;20618;-86
2022/08/30 06:09:42;;;;;;;5.17;4.33;;;;;;;;;;5049567;28;20646;-85
2022/08/30 06:12:09;;;;;;;4.50;2.80;;;17.60;99.90;;;;;;5048322;28;20788;-86
2022/08/30 06:14:37;;;;;;;3.87;3.53;;;17.70;99.90;;;;;;5049604;28;20753;-86
2022/08/30 06:17:06;;;;;;;3.17;2.67;;;17.80;99.90;;;;;;5048378;28;20618;-85
2022/08/30 06:19:33;;;;;;;3.20;2.87;;;17.80;99.90;;;;;;5049108;28;21195;-86
2022/08/30 06:22:00;;;;;;;3.77;2.83;;;17.80;99.90;;;;;;5049915;28;20622;-84
2022/08/30 06:24:28;;;;;;;3.90;3.53;;;17.80;99.90;;;;;;5052986;28;20630;-85
2022/08/30 06:26:55;;;;;;;9.40;3.37;;;17.80;99.90;;;;;;5053254;28;20623;-84
2022/08/30 06:29:22;;;;;;;4.43;3.20;;;17.80;99.90;;;;;;5053200;28;20594;-85
2022/08/30 06:31:49;;;;;;;5.00;4.20;;;18.00;99.90;;;;;;5053555;28;20622;-86
2022/08/30 06:34:18;;;;;;;5.13;4.07;;;18.20;99.90;;;;;;5053419;28;20618;-86
2022/08/30 06:36:45;;;;;;;5.57;4.27;;;18.40;99.90;;;;;;5053884;28;20621;-86
2022/08/30 06:39:12;;;;;;;4.43;3.70;;;18.50;99.90;;;;;;5054395;28;20611;-86
2022/08/30 06:41:41;;;;;;;6.00;4.00;;;18.70;99.90;;;;;;5053340;28;20629;-87
2022/08/30 06:44:08;;;;;;;3.80;3.43;;;18.80;99.90;;;;;;5054575;28;20630;-87
2022/08/30 06:46:37;;;;;;;6.40;5.40;;;18.70;99.90;;;;;;5052603;28;21359;-86
2022/08/30 06:49:06;;;;;;;5.40;4.40;;;18.70;99.90;;;;;;5053014;28;21002;-86
2022/08/30 06:51:37;;;;;;;4.13;3.47;;;18.80;99.90;;;;;;5053534;28;20626;-86
2022/08/30 06:54:05;;;;;;;5.50;4.30;;;18.70;99.90;;;;;;5054141;28;20670;-87
2022/08/30 06:56:33;;;;;;;6.30;3.50;;;;;;;;;;5046988;28;20699;-86
2022/08/30 06:59:00;;;;;;;4.93;4.23;;;18.60;99.90;;;;;;5050638;28;20622;-86
2022/08/30 07:01:29;;;;;;;9.10;5.23;;;18.70;99.90;;;;;;5051247;28;20627;-88
2022/08/30 07:03:56;;;;;;;5.10;3.20;;;18.80;99.90;;;;;;5051552;28;21200;-88
2022/08/30 07:06:25;;;;;;;17.23;6.10;;;18.80;99.90;;;;;;5050482;28;20713;-88
2022/08/30 07:08:54;;;;;;;32.37;7.17;;;18.90;99.90;;;;;;5051377;28;20618;-86
2022/08/30 07:11:29;;;;;;;4.77;3.87;;;18.90;99.30;;;;;;5047312;28;20625;-86
2022/08/30 07:13:57;;;;;;;6.63;4.67;;;19.00;99.60;;;;;;5034203;28;20673;-87
2022/08/30 07:16:24;;;;;;;3.77;3.40;;;19.00;99.90;;;;;;5040362;28;20614;-86
2022/08/30 07:18:50;;;;;;;4.30;3.67;;;18.90;99.90;;;;;;5055315;28;21191;-87
2022/08/30 07:21:19;;;;;;;4.43;3.80;;;18.80;99.90;;;;;;5054166;28;20614;-85
2022/08/30 07:23:50;;;;;;;4.80;3.83;;;18.80;99.90;;;;;;5055143;28;20662;-85
2022/08/30 07:26:23;;;;;;;5.90;4.07;;;18.80;99.90;;;;;;5053052;28;20697;-86
2022/08/30 07:28:50;;;;;;;3.50;3.20;;;19.00;99.90;;;;;;5050984;28;20618;-86
2022/08/30 07:31:19;;;;;;;5.10;3.27;;;19.60;99.40;;;;;;5050989;28;20699;-87
2022/08/30 07:33:46;;;;;;;4.00;3.50;;;19.40;99.50;;;;;;5051653;28;20768;-87
2022/08/30 07:36:16;;;;;;;4.53;4.13;;;19.70;98.70;;;;;;5049863;28;20641;-88
2022/08/30 07:38:43;;;;;;;4.20;3.90;;;19.80;98.50;;;;;;5048438;28;20626;-87
2022/08/30 07:41:17;;;;;;;6.00;3.50;;;20.10;98.30;;;;;;5049737;28;20618;-87
2022/08/30 07:43:45;;;;;;;4.00;3.70;;;20.10;98.50;;;;;;5051264;28;20607;-87
2022/08/30 07:46:12;;;;;;;4.23;2.93;;;;;;;;;;5050129;28;20638;-87
2022/08/30 07:48:42;;;;;;;5.47;3.97;;;20.40;97.80;;;;;;5030229;28;20803;-87
2022/08/30 07:51:13;;;;;;;3.50;2.67;;;20.50;97.70;;;;;;5045960;28;20642;-87
2022/08/30 07:53:40;;;;;;;8.03;3.93;;;21.20;98.50;;;;;;5049259;28;20674;-88
2022/08/30 07:56:08;;;;;;;4.03;3.10;;;20.90;96.50;;;;;;5050866;28;21262;-87
2022/08/30 07:58:36;;;;;;;3.57;3.27;;;20.90;96.60;;;;;;5051897;28;20629;-88
2022/08/30 08:01:09;;;;;;;3.60;3.20;;;21.00;96.70;;;;;;5051097;28;20633;-87
2022/08/30 08:03:38;;;;;;;3.60;2.97;;;21.10;96.30;;;;;;5049640;28;21562;-87
2022/08/30 08:06:07;;;;;;;2.97;2.73;;;21.20;95.40;;;;;;5050749;28;20637;-87
2022/08/30 08:08:34;;;;;;;4.90;4.17;;;21.20;95.50;;;;;;5050140;28;20622;-87
2022/08/30 08:11:07;;;;;;;3.40;3.03;;;21.30;95.30;;;;;;5049531;28;20618;-87
2022/08/30 08:13:34;;;;;;;3.40;3.10;;;21.40;95.30;;;;;;5050905;28;20669;-87
2022/08/30 08:16:01;;;;;;;3.83;3.33;;;21.50;95.10;;;;;;5050023;28;20631;-88
2022/08/30 08:18:30;;;;;;;3.50;3.20;;;21.80;95.50;;;;;;5050042;28;21131;-88
2022/08/30 08:20:57;;;;;;;3.90;3.50;;;21.10;94.60;;;;;;5049473;28;21055;-87
2022/08/30 08:23:25;;;;;;;4.37;3.87;;;21.80;94.70;;;;;;5048472;28;20684;-88
2022/08/30 08:25:54;;;;;;;7.70;3.73;;;22.00;94.60;;;;;;5048011;28;20668;-87
2022/08/30 08:28:21;;;;;;;5.40;3.00;;;22.10;94.10;;;;;;5047962;28;20626;-87
2022/08/30 08:30:49;;;;;;;4.50;4.03;;;22.10;93.70;;;;;;5049627;28;20646;-88
2022/08/30 08:33:17;;;;;;;4.18;3.78;;;22.40;93.10;;;;;;5049644;28;20826;-87
2022/08/30 08:35:46;;;;;;;4.03;3.50;;;22.40;93.50;;;;;;5049089;28;20211;-87
2022/08/30 08:38:14;;;;;;;4.27;3.20;;;22.70;93.10;;;;;;5049102;28;21188;-87
2022/08/30 08:40:55;;;;;;;4.57;4.10;;;22.70;93.50;;;;;;5050015;28;20626;-88
2022/08/30 08:43:25;;;;;;;4.33;3.70;;;23.10;92.90;;;;;;5050686;28;20622;-88
2022/08/30 08:45:57;;;;;;;4.50;3.03;;;23.10;92.80;;;;;;5050546;28;20614;-87
2022/08/30 08:48:35;;;;;;;3.93;2.90;;;23.20;91.90;;;;;;5049578;28;20690;-88
2022/08/30 08:53:57;;;;;;;3.40;3.07;;;23.40;91.30;;;;;;5036138;28;20676;-88
2022/08/30 08:56:24;;;;;;;3.57;3.27;;;23.40;91.50;;;;;;5050494;28;20626;-88
2022/08/30 08:58:54;;;;;;;3.37;3.07;;;23.50;91.50;;;;;;5048876;28;21431;-87
2022/08/30 09:01:23;;;;;;;3.57;3.33;;;23.40;91.70;;;;;;5048753;28;20629;-88
2022/08/30 09:03:52;;;;;;;3.43;3.13;;;23.70;90.20;;;;;;5048381;28;21200;-88
2022/08/30 09:06:45;;;;;;;3.40;3.00;;;23.90;91.00;;;;;;5048641;28;20634;-87
2022/08/30 09:09:13;;;;;;;3.63;2.87;;;23.90;90.20;;;;;;5047194;28;20687;-88
2022/08/30 09:11:42;;;;;;;3.10;2.90;;;24.10;90.60;;;;;;5048379;28;21000;-87
2022/08/30 09:14:13;;;;;;;2.80;2.50;;;24.30;88.40;;;;;;5047230;28;20669;-87
2022/08/30 09:16:52;;;;;;;4.17;3.77;;;24.20;88.10;;;;;;5047272;28;21376;-87
2022/08/30 09:19:35;;;;;;;3.50;2.97;;;24.30;87.10;;;;;;5047958;28;20625;-88
2022/08/30 09:22:11;;;;;;;3.30;2.97;;;24.40;87.90;;;;;;5044969;28;20626;-88
2022/08/30 09:24:42;;;;;;;3.97;3.57;;;24.60;87.80;;;;;;5045123;28;20644;-89
2022/08/30 09:27:25;;;;;;;4.03;3.63;;;24.80;84.80;;;;;;5046750;28;20736;-87
2022/08/30 09:30:01;;;;;;;4.50;2.97;;;24.90;85.70;;;;;;5047595;28;21067;-87
2022/08/30 09:32:34;;;;;;;3.10;2.80;;;25.00;84.90;;;;;;5047934;28;20721;-87
2022/08/30 09:35:01;;;;;;;4.30;3.90;;;25.10;85.70;;;;;;5048578;28;20666;-88
2022/08/30 09:37:34;;;;;;;3.23;2.90;;;25.10;86.50;;;;;;5048418;28;21186;-88
2022/08/30 09:40:02;;;;;;;3.63;3.33;;;25.20;82.70;;;;;;5048758;28;20704;-88
2022/08/30 09:42:33;;;;;;;3.73;3.43;;;25.20;83.30;;;;;;5047842;28;20638;-87
2022/08/30 09:45:10;;;;;;;4.30;3.70;;;25.30;83.00;;;;;;5047787;28;20867;-87
2022/08/30 09:47:46;;;;;;;3.53;3.23;;;25.50;79.80;;;;;;5047621;28;20290;-88
2022/08/30 09:50:14;;;;;;;3.40;3.10;;;25.50;80.30;;;;;;5048310;28;20618;-88
2022/08/30 09:52:56;;;;;;;3.83;3.50;;;25.50;78.90;;;;;;5049158;28;20993;-87
2022/08/30 09:55:56;;;;;;;3.80;3.50;;;25.50;80.00;;;;;;5048051;28;20645;-87
2022/08/30 09:58:35;;;;;;;3.50;3.20;;;25.50;79.00;;;;;;5044101;28;21201;-87
2022/08/30 10:01:09;;;;;;;3.50;3.03;;;25.60;81.10;;;;;;5055283;28;20711;-88
2022/08/30 10:03:44;;;;;;;3.03;2.73;;;25.60;81.20;;;;;;5054285;28;20629;-88
2022/08/30 10:06:21;;;;;;;2.83;2.63;;;25.80;77.90;;;;;;5048136;28;20641;-87
2022/08/30 10:09:00;;;;;;;3.37;3.07;;;25.80;78.40;;;;;;5052752;28;20691;-87
2022/08/30 10:11:36;;;;;;;2.67;2.47;;;25.90;76.40;;;;;;5053145;28;20723;-87
2022/08/30 10:14:42;;;;;;;4.13;3.00;;;26.00;77.00;;;;;;5052691;28;21316;-87
2022/08/30 10:17:14;;;;;;;2.70;2.50;;;26.20;78.00;;;;;;5053645;28;20653;-88
2022/08/30 10:19:57;;;;;;;3.00;2.80;;;26.20;78.10;;;;;;5051819;28;20623;-87
2022/08/30 10:22:30;;;;;;;4.30;3.60;;;26.30;77.10;;;;;;5031773;28;21029;-87
2022/08/30 10:25:10;;;;;;;3.33;3.03;;;26.50;75.20;;;;;;5042135;28;20637;-87
2022/08/30 10:27:43;;;;;;;3.70;3.40;;;26.60;73.60;;;;;;5051930;28;20630;-87
2022/08/30 10:30:13;;;;;;;3.60;3.30;;;26.60;74.30;;;;;;5051661;28;20657;-86
2022/08/30 10:32:47;;;;;;;3.83;3.13;;;26.70;72.90;;;;;;5051286;28;20695;-87
2022/08/30 10:35:18;;;;;;;3.10;2.80;;;26.60;72.30;;;;;;5049172;28;20657;-88
2022/08/30 10:37:50;;;;;;;3.90;3.60;;;26.80;72.30;;;;;;5049900;28;20695;-87
2022/08/30 10:43:22;;;;;;;4.60;3.20;;;26.80;73.00;;;;;;5052355;28;20614;-88
2022/08/30 10:45:52;;;;;;;3.17;2.87;;;26.90;72.40;;;;;;5051786;28;20638;-87
2022/08/30 10:48:25;;;;;;;3.63;3.30;;;27.10;67.90;;;;;;5051685;28;20640;-88
2022/08/30 10:50:54;;;;;;;3.00;2.80;;;27.10;68.30;;;;;;5051828;28;20662;-87
2022/08/30 10:53:29;;;;;;;3.37;3.07;;;27.10;68.30;;;;;;5052051;28;20650;-88
2022/08/30 10:56:02;;;;;;;3.17;2.97;;;27.30;67.70;;;;;;5044390;28;20699;-87
2022/08/30 10:58:31;;;;;;;2.83;2.60;;;27.30;65.20;;;;;;5039332;28;20666;-88
2022/08/30 11:01:17;;;;;;;2.70;2.50;;;27.30;65.70;;;;;;5036360;28;21327;-87
2022/08/30 11:04:23;;;;;;;3.43;3.10;;;27.40;64.20;;;;;;5050413;28;20729;-88
2022/08/30 11:06:58;;;;;;;4.03;3.13;;;27.40;61.10;;;;;;5047820;28;20628;-88
2022/08/30 11:09:53;;;;;;;3.87;3.50;;;27.40;61.90;;;;;;5051340;28;20637;-87
2022/08/30 11:12:31;;;;;;;3.27;3.07;;;27.60;64.40;;;;;;5049532;28;20643;-87
2022/08/30 11:15:13;;;;;;;3.20;2.90;;;27.60;64.80;;;;;;5051144;28;20750;-88
2022/08/30 11:17:46;;;;;;;3.67;3.10;;;27.60;65.20;;;;;;5033039;28;20618;-88
2022/08/30 11:20:28;;;;;;;4.03;3.00;;;27.60;66.40;;;;;;5050476;28;20671;-88
2022/08/30 11:23:30;;;;;;;2.90;2.70;;;27.60;66.20;;;;;;5049804;28;20759;-88
2022/08/30 11:26:00;;;;;;;3.50;2.80;;;27.60;67.50;;;;;;5049068;28;21176;-88
2022/08/30 11:29:07;;;;;;;3.17;2.97;;;27.60;62.40;;;;;;5049833;28;20629;-89
2022/08/30 11:31:44;;;;;;;3.17;2.87;;;28.10;63.20;;;;;;5043596;28;21051;-88
2022/08/30 11:34:13;;;;;;;3.60;3.30;;;;;;;;;;5049605;28;20657;-88
2022/08/30 11:37:07;;;;;;;3.60;3.30;;;28.30;59.90;;;;;;5050220;28;20638;-87
2022/08/30 11:39:52;;;;;;;3.87;2.83;;;28.00;62.30;;;;;;5050671;28;21002;-88
2022/08/30 11:42:36;;;;;;;3.73;3.43;;;27.70;62.00;;;;;;5049027;28;20615;-88
2022/08/30 11:45:44;;;;;;;3.80;3.50;;;27.70;61.90;;;;;;5050381;28;21051;-87
2022/08/30 11:48:43;;;;;;;2.40;2.20;;;27.70;61.60;;;;;;5038237;28;20636;-87
2022/08/30 11:51:40;;;;;;;3.00;2.80;;;27.70;60.30;;;;;;5048246;28;20657;-87
2022/08/30 11:54:21;;;;;;;3.17;2.87;;;27.70;60.00;;;;;;5048879;28;20646;-87
2022/08/30 11:56:56;;;;;;;3.73;3.40;;;27.90;60.70;;;;;;5043756;28;20623;-88
2022/08/30 11:59:30;;;;;;;2.70;2.50;;;28.10;61.40;;;;;;5046887;28;20653;-88
2022/08/30 12:02:00;;;;;;;3.07;2.60;;;;;;;;;;5049342;28;20626;-89
2022/08/30 12:04:37;;;;;;;3.53;3.23;;;28.10;59.00;;;;;;5049814;28;20622;-88
2022/08/30 12:07:05;;;;;;;3.50;3.20;;;27.60;59.70;;;;;;5049886;28;21165;-87
2022/08/30 12:10:00;;;;;;;3.03;2.83;;;27.50;62.00;;;;;;5046971;28;20623;-87
2022/08/30 12:12:50;;;;;;;3.37;3.07;;;27.40;63.10;;;;;;5002240;28;20638;-88
2022/08/30 12:15:56;;;;;;;6.00;2.93;;;27.60;61.10;;;;;;5048581;28;20678;-87
2022/08/30 12:18:40;;;;;;;3.17;2.73;;;27.60;63.20;;;;;;5048905;28;20638;-88
2022/08/30 12:21:26;;;;;;;3.90;3.53;;;27.60;63.50;;;;;;5048545;28;20649;-87
2022/08/30 12:23:59;;;;;;;3.40;3.10;;;27.50;63.10;;;;;;5033509;28;20630;-88
2022/08/30 12:26:33;;;;;;;4.63;3.50;;;27.40;63.60;;;;;;5048387;28;21377;-88
2022/08/30 12:29:10;;;;;;;4.10;2.93;;;27.30;61.60;;;;;;5047797;28;20619;-87
2022/08/30 12:31:41;;;;;;;3.50;3.20;;;27.30;60.50;;;;;;5046873;28;20629;-87
2022/08/30 12:34:11;;;;;;;3.50;2.80;;;27.30;59.90;;;;;;5047956;28;21243;-86
2022/08/30 12:36:49;;;;;;;3.83;2.83;;;27.30;60.50;;;;;;5049843;28;20930;-88
2022/08/30 12:39:19;;;;;;;2.77;2.57;;;27.40;59.50;;;;;;5048561;28;20623;-88
2022/08/30 12:41:46;;;;;;;3.88;3.58;;;27.60;59.20;;;;;;5047673;28;20733;-88
2022/08/30 12:44:16;;;;;;;2.80;2.60;;;27.60;59.10;;;;;;5047087;28;20214;-87
2022/08/30 12:46:45;;;;;;;4.13;2.67;;;27.70;58.90;;;;;;5048586;28;20654;-88
2022/08/30 12:51:49;;;;;;;3.63;3.30;;;28.20;58.10;;;;;;5003196;22;21250;-83
2022/08/30 12:54:19;;;;;;;3.67;2.53;;;28.30;58.50;;;;;;4989231;28;20659;-83
2022/08/30 12:56:59;;;;;;;3.00;2.70;;;28.40;57.90;;;;;;4987658;28;20633;-83
2022/08/30 12:59:52;;;;;;;3.00;2.67;;;28.40;58.90;;;;;;4986498;28;20667;-82
2022/08/30 13:02:22;;;;;;;3.70;3.40;;;28.50;57.20;;;;;;4987671;28;20723;-82
2022/08/30 13:04:50;;;;;;;3.30;3.00;;;28.20;56.60;;;;;;4989529;28;20731;-83
2022/08/30 13:07:32;;;;;;;3.23;2.93;;;28.10;57.20;;;;;;4987533;28;20732;-83
2022/08/30 13:10:17;;;;;;;2.63;2.43;;;27.90;58.00;;;;;;4988060;28;20724;-83
2022/08/30 13:12:59;;;;;;;3.40;3.10;;;27.80;58.00;;;;;;4969156;28;20653;-82
2022/08/30 13:15:31;;;;;;;4.30;2.77;;;29.10;58.70;;;;;;4980374;28;20672;-82
2022/08/30 13:18:28;;;;;;;3.70;3.10;;;30.60;56.40;;;;;;4986972;28;20645;-83
2022/08/30 13:21:11;;;;;;;2.87;2.67;;;31.30;54.10;;;;;;4986013;28;20639;-82